createdAt,value
2024-03-04T00:04:12.112Z,23.23
2024-03-04T00:09:15.316Z,26.07
2024-03-04T00:14:17.859Z,25.83
2024-03-04T00:19:20.485Z,27.00
2024-03-04T00:24:23.656Z,28.00
2024-03-04T00:29:28.946Z,27.23
2024-03-04T00:34:31.597Z,26.13
2024-03-04T00:39:34.200Z,27.87
2024-03-04T00:44:36.856Z,30.90
2024-03-04T00:49:39.398Z,29.20
2024-03-04T00:54:41.941Z,27.57
2024-03-04T00:59:44.962Z,25.23
2024-03-04T01:04:47.651Z,28.77
2024-03-04T01:09:50.170Z,24.17
2024-03-04T01:14:53.356Z,27.83
2024-03-04T01:19:56.677Z,24.13
2024-03-04T01:24:59.546Z,16.20
2024-03-04T01:30:02.056Z,31.80
2024-03-04T01:35:08.727Z,31.73
2024-03-04T01:40:14.762Z,30.00
2024-03-04T01:45:27.071Z,31.97
2024-03-04T01:50:34.934Z,33.63
2024-03-04T01:55:43.846Z,22.00
2024-03-04T02:00:50.343Z,33.67
2024-03-04T02:05:55.079Z,32.73
2024-03-04T02:10:58.669Z,32.53
2024-03-04T02:16:01.754Z,31.77
2024-03-04T02:21:06.172Z,31.80
2024-03-04T02:26:08.664Z,29.73
2024-03-04T02:31:11.785Z,31.10
2024-03-04T02:36:14.522Z,35.13
2024-03-04T02:41:17.077Z,24.67
2024-03-04T02:46:20.163Z,30.77
2024-03-04T02:51:23.087Z,31.13
2024-03-04T02:56:25.747Z,28.53
2024-03-04T03:01:29.466Z,26.13
2024-03-04T03:06:32.164Z,32.77
2024-03-04T03:11:34.561Z,17.27
2024-03-04T03:16:37.190Z,32.03
2024-03-04T03:21:40.316Z,31.50
2024-03-04T03:26:42.675Z,33.67
2024-03-04T03:31:45.847Z,36.17
2024-03-04T03:36:48.409Z,30.13
2024-03-04T03:41:51.015Z,33.60
2024-03-04T03:46:53.482Z,25.20
2024-03-04T03:51:56.081Z,37.17
2024-03-04T03:56:58.513Z,32.23
2024-03-04T04:02:01.158Z,32.77
2024-03-04T04:07:04.239Z,28.80
2024-03-04T04:12:07.838Z,33.70
2024-03-04T04:17:10.356Z,27.13
2024-03-04T04:22:13.034Z,25.57
2024-03-04T04:27:15.465Z,28.13
2024-03-04T04:32:18.994Z,30.50
2024-03-04T04:37:21.874Z,32.93
2024-03-04T04:42:25.201Z,34.00
2024-03-04T04:47:28.549Z,33.77
2024-03-04T04:52:31.954Z,28.60
2024-03-04T04:57:34.435Z,34.07
2024-03-04T05:02:36.851Z,31.27
2024-03-04T05:07:40.787Z,27.30
2024-03-04T05:12:43.926Z,33.63
2024-03-04T05:17:47.455Z,34.37
2024-03-04T05:22:50.349Z,34.63
2024-03-04T05:27:52.847Z,31.90
2024-03-04T05:32:55.282Z,34.23
2024-03-04T05:37:58.350Z,34.00
2024-03-04T05:43:00.885Z,48.43
2024-03-04T05:48:03.524Z,36.67
2024-03-04T05:53:06.117Z,36.00
2024-03-04T05:58:08.751Z,31.40
2024-03-04T06:03:12.844Z,32.87
2024-03-04T06:08:16.109Z,35.10
2024-03-04T06:13:19.042Z,38.73
2024-03-04T06:18:21.573Z,31.70
2024-03-04T06:23:24.009Z,29.43
2024-03-04T06:28:26.481Z,32.20
2024-03-04T06:33:39.871Z,31.00
2024-03-04T06:38:51.758Z,36.37
2024-03-04T06:43:54.448Z,37.43
2024-03-04T06:48:58.216Z,37.13
2024-03-04T06:54:00.728Z,35.17
2024-03-04T06:59:04.053Z,32.27
2024-03-04T07:04:07.703Z,33.53
2024-03-04T07:09:10.221Z,29.30
2024-03-04T07:14:12.678Z,32.67
2024-03-04T07:19:15.318Z,29.47
2024-03-04T07:24:19.038Z,27.90
2024-03-04T07:29:27.333Z,20.77
2024-03-04T07:34:38.652Z,21.43
2024-03-04T07:39:41.736Z,22.03
2024-03-04T07:44:45.955Z,23.40
2024-03-04T07:49:48.486Z,23.83
2024-03-04T07:54:50.912Z,18.67
2024-03-04T07:59:53.474Z,20.23
2024-03-04T08:04:56.035Z,19.70
2024-03-04T08:09:58.817Z,22.87
2024-03-04T08:15:01.887Z,21.70
2024-03-04T08:20:11.494Z,19.87
2024-03-04T08:25:19.633Z,18.97
2024-03-04T08:30:22.306Z,19.63
2024-03-04T08:35:24.777Z,21.47
2024-03-04T08:40:28.182Z,21.80
2024-03-04T08:45:30.875Z,21.83
2024-03-04T08:50:33.588Z,18.67
2024-03-04T08:55:36.027Z,21.53
2024-03-04T09:00:40.554Z,22.90
2024-03-04T09:05:45.733Z,21.90
2024-03-04T09:10:49.529Z,24.10
2024-03-04T09:15:52.079Z,20.67
2024-03-04T09:20:57.045Z,25.57
2024-03-04T09:25:59.619Z,24.20
2024-03-04T09:31:02.051Z,13.37
2024-03-04T09:36:05.135Z,22.90
2024-03-04T09:41:08.092Z,25.83
2024-03-04T09:46:11.150Z,24.07
2024-03-04T09:51:15.319Z,23.73
2024-03-04T09:56:18.587Z,21.40
2024-03-04T10:01:21.901Z,20.00
2024-03-04T10:06:24.502Z,24.27
2024-03-04T10:11:27.090Z,24.50
2024-03-04T10:16:30.144Z,24.43
2024-03-04T10:21:33.608Z,20.73
2024-03-04T10:26:48.438Z,24.40
2024-03-04T10:31:56.108Z,22.10
2024-03-04T10:36:59.814Z,26.90
2024-03-04T10:42:04.465Z,25.03
2024-03-04T10:47:08.192Z,27.93
2024-03-04T10:52:14.107Z,24.30
2024-03-04T10:57:27.844Z,27.40
2024-03-04T11:02:44.124Z,27.43
2024-03-04T11:07:47.786Z,29.07
2024-03-04T11:13:19.209Z,23.33
2024-03-04T11:18:52.645Z,29.50
2024-03-04T11:23:55.639Z,29.23
2024-03-04T11:34:30.217Z,29.93
2024-03-04T11:39:32.706Z,27.50
2024-03-04T11:44:35.121Z,25.10
2024-03-04T11:49:46.809Z,28.43
2024-03-04T11:54:50.027Z,30.20
2024-03-04T11:59:59.676Z,29.33
2024-03-04T12:05:03.494Z,33.57
2024-03-04T12:10:13.222Z,25.23
2024-03-04T12:15:20.100Z,23.53
2024-03-04T12:20:22.996Z,34.67
2024-03-04T12:25:28.445Z,27.17
2024-03-04T12:30:31.118Z,28.53
2024-03-04T12:35:34.247Z,24.23
2024-03-04T12:40:37.159Z,21.47
2024-03-04T12:45:39.841Z,29.50
2024-03-04T12:50:44.265Z,20.73
2024-03-04T12:55:49.196Z,15.83
2024-03-04T13:00:52.143Z,19.10
2024-03-04T13:05:56.038Z,24.27
2024-03-04T13:10:59.275Z,17.07
2024-03-04T13:16:01.845Z,22.13
2024-03-04T13:21:06.580Z,24.57
2024-03-04T13:26:09.041Z,25.33
2024-03-04T13:31:11.597Z,18.93
2024-03-04T13:36:14.085Z,16.53
2024-03-04T13:41:16.527Z,26.20
2024-03-04T13:46:19.102Z,22.17
2024-03-04T13:51:21.478Z,16.80
2024-03-04T13:56:24.212Z,22.30
2024-03-04T14:01:27.749Z,23.67
2024-03-04T14:06:30.536Z,26.07
2024-03-04T14:11:33.019Z,22.60
2024-03-04T14:16:36.519Z,17.40
2024-03-04T14:21:39.238Z,21.97
2024-03-04T14:26:41.756Z,18.33
2024-03-04T14:31:44.240Z,15.73
2024-03-04T14:36:47.909Z,16.43
2024-03-04T14:41:50.507Z,19.07
2024-03-04T14:46:53.021Z,21.83
2024-03-04T14:51:55.799Z,19.67
2024-03-04T14:56:58.136Z,21.63
2024-03-04T15:02:00.620Z,21.43
2024-03-04T15:07:05.524Z,23.97
2024-03-04T15:12:08.780Z,16.20
2024-03-04T15:17:11.319Z,13.80
2024-03-04T15:22:13.878Z,25.27
2024-03-04T15:27:16.793Z,19.97
2024-03-04T15:32:19.539Z,21.43
2024-03-04T15:37:23.238Z,23.03
2024-03-04T15:42:25.689Z,18.03
2024-03-04T15:47:28.279Z,22.43
2024-03-04T15:52:30.762Z,23.77
2024-03-04T15:57:33.188Z,20.77
2024-03-04T16:02:35.690Z,21.97
2024-03-04T16:07:38.410Z,17.63
2024-03-04T16:12:41.023Z,24.73
2024-03-04T16:17:43.776Z,23.30
2024-03-04T16:22:46.678Z,26.03
2024-03-04T16:27:51.539Z,24.80
2024-03-04T16:32:54.098Z,23.90
2024-03-04T16:37:56.659Z,26.30
2024-03-04T16:42:59.130Z,22.40
2024-03-04T16:48:02.130Z,22.83
2024-03-04T16:53:04.776Z,28.03
2024-03-04T16:58:07.393Z,30.37
2024-03-04T17:03:09.955Z,27.23
2024-03-04T17:08:14.096Z,32.77
2024-03-04T17:13:17.018Z,28.60
2024-03-04T17:18:19.734Z,28.77
2024-03-04T17:23:22.499Z,31.70
2024-03-04T17:28:24.999Z,30.87
2024-03-04T17:33:27.555Z,32.67
2024-03-04T17:38:29.994Z,32.37
2024-03-04T17:43:32.444Z,44.50
2024-03-04T17:48:34.977Z,34.13
2024-03-04T17:53:38.670Z,40.33
2024-03-04T17:58:41.149Z,23.50
2024-03-04T18:03:43.511Z,37.00
2024-03-04T18:08:45.996Z,35.33
2024-03-04T18:13:48.667Z,37.07
2024-03-04T18:18:51.145Z,36.50
2024-03-04T18:23:53.651Z,33.43
2024-03-04T18:40:12.690Z,38.57
2024-03-04T18:45:15.402Z,30.73
2024-03-04T18:50:18.704Z,32.10
2024-03-04T18:55:21.213Z,34.43
2024-03-04T19:00:23.808Z,29.97
2024-03-04T19:05:29.822Z,25.90
2024-03-04T19:10:32.417Z,34.20
2024-03-04T19:15:35.037Z,33.90
2024-03-04T19:20:40.268Z,34.70
2024-03-04T19:25:42.833Z,28.13
2024-03-04T19:30:45.405Z,30.80
2024-03-04T19:35:47.971Z,32.13
2024-03-04T19:40:50.578Z,29.87
2024-03-04T19:45:53.068Z,19.23
2024-03-04T19:50:56.760Z,19.27
2024-03-04T19:56:01.532Z,19.40
2024-03-04T20:01:05.244Z,22.13
2024-03-04T20:06:07.901Z,27.07
2024-03-04T20:11:12.690Z,25.47
2024-03-04T20:16:16.982Z,25.10
2024-03-04T20:21:20.174Z,27.60
2024-03-04T20:26:23.101Z,25.00
2024-03-04T20:31:25.555Z,27.77
2024-03-04T20:36:28.135Z,25.67
2024-03-04T20:41:30.619Z,21.93
2024-03-04T20:46:33.080Z,26.30
2024-03-04T20:51:36.297Z,27.40
2024-03-04T20:56:38.768Z,25.47
2024-03-04T21:01:41.769Z,25.10
2024-03-04T21:06:45.176Z,27.43
2024-03-04T21:11:53.430Z,25.90
2024-03-04T21:16:57.041Z,26.20
2024-03-04T21:21:59.644Z,28.87
2024-03-04T21:27:02.155Z,27.07
2024-03-04T21:32:05.865Z,21.40
2024-03-04T21:37:16.909Z,22.93
2024-03-04T21:42:25.131Z,24.77
2024-03-04T21:47:28.291Z,27.07
2024-03-04T21:52:30.903Z,26.90
2024-03-04T21:57:33.693Z,26.67
2024-03-04T22:02:36.241Z,26.30
2024-03-04T22:07:39.489Z,24.73
2024-03-04T22:12:42.160Z,27.23
2024-03-04T22:17:44.815Z,28.00
2024-03-04T22:22:47.332Z,26.67
2024-03-04T22:27:49.852Z,27.23
2024-03-04T22:32:52.382Z,27.40
2024-03-04T22:37:55.705Z,27.30
2024-03-04T22:42:58.872Z,29.13
2024-03-04T22:48:01.625Z,29.90
2024-03-04T22:53:04.780Z,27.10
2024-03-04T22:58:07.313Z,27.37
2024-03-04T23:03:12.193Z,28.00
2024-03-04T23:08:15.399Z,30.93
2024-03-04T23:13:18.621Z,27.07
2024-03-04T23:18:21.097Z,28.23
2024-03-04T23:23:23.539Z,28.43
2024-03-04T23:28:26.400Z,25.63
2024-03-04T23:33:29.359Z,24.93
2024-03-04T23:38:31.800Z,27.50
2024-03-04T23:43:34.819Z,25.97
2024-03-04T23:48:38.015Z,26.30
2024-03-04T23:53:40.790Z,26.27
2024-03-04T23:58:43.294Z,27.67
